sensor_id;sensor_type;location;lat;lon;timestamp;temperature;humidity
44037;DHT22;62488;-37.670;-63.532;2023-02-19T00:03:54;19.00;36.70
44037;DHT22;62488;-37.670;-63.532;2023-02-19T00:06:23;18.80;36.90
44037;DHT22;62488;-37.670;-63.532;2023-02-19T00:08:50;18.70;37.20
44037;DHT22;62488;-37.670;-63.532;2023-02-19T00:11:20;18.60;37.30
44037;DHT22;62488;-37.670;-63.532;2023-02-19T00:13:49;18.60;37.70
44037;DHT22;62488;-37.670;-63.532;2023-02-19T00:16:19;18.50;37.70
44037;DHT22;62488;-37.670;-63.532;2023-02-19T00:18:47;18.40;38.60
44037;DHT22;62488;-37.670;-63.532;2023-02-19T00:21:16;18.40;38.30
44037;DHT22;62488;-37.670;-63.532;2023-02-19T00:23:53;18.20;38.30
44037;DHT22;62488;-37.670;-63.532;2023-02-19T00:26:21;18.20;38.60
44037;DHT22;62488;-37.670;-63.532;2023-02-19T00:28:49;18.10;38.50
44037;DHT22;62488;-37.670;-63.532;2023-02-19T00:31:29;18.00;39.00
44037;DHT22;62488;-37.670;-63.532;2023-02-19T00:33:59;17.90;39.00
44037;DHT22;62488;-37.670;-63.532;2023-02-19T00:36:27;17.90;39.10
44037;DHT22;62488;-37.670;-63.532;2023-02-19T00:38:55;17.70;39.50
44037;DHT22;62488;-37.670;-63.532;2023-02-19T00:41:23;17.60;39.60
44037;DHT22;62488;-37.670;-63.532;2023-02-19T00:44:07;17.50;40.10
44037;DHT22;62488;-37.670;-63.532;2023-02-19T00:46:38;17.40;40.90
44037;DHT22;62488;-37.670;-63.532;2023-02-19T00:49:07;17.40;40.40
44037;DHT22;62488;-37.670;-63.532;2023-02-19T00:51:37;17.20;40.90
44037;DHT22;62488;-37.670;-63.532;2023-02-19T00:54:05;17.10;41.30
44037;DHT22;62488;-37.670;-63.532;2023-02-19T00:56:33;17.00;41.10
44037;DHT22;62488;-37.670;-63.532;2023-02-19T00:58:59;17.00;41.10
44037;DHT22;62488;-37.670;-63.532;2023-02-19T01:01:26;17.00;41.30
44037;DHT22;62488;-37.670;-63.532;2023-02-19T01:03:53;16.90;41.60
44037;DHT22;62488;-37.670;-63.532;2023-02-19T01:06:21;16.80;41.70
44037;DHT22;62488;-37.670;-63.532;2023-02-19T01:08:48;16.80;41.90
44037;DHT22;62488;-37.670;-63.532;2023-02-19T01:11:16;16.70;42.00
44037;DHT22;62488;-37.670;-63.532;2023-02-19T01:13:44;16.70;42.30
44037;DHT22;62488;-37.670;-63.532;2023-02-19T01:16:18;16.60;42.40
44037;DHT22;62488;-37.670;-63.532;2023-02-19T01:18:46;16.60;43.00
44037;DHT22;62488;-37.670;-63.532;2023-02-19T01:21:16;16.50;42.90
44037;DHT22;62488;-37.670;-63.532;2023-02-19T01:23:44;16.50;43.20
44037;DHT22;62488;-37.670;-63.532;2023-02-19T01:26:13;16.40;43.00
44037;DHT22;62488;-37.670;-63.532;2023-02-19T01:28:40;16.40;43.10
44037;DHT22;62488;-37.670;-63.532;2023-02-19T01:31:11;16.40;43.00
44037;DHT22;62488;-37.670;-63.532;2023-02-19T01:33:39;16.30;43.20
44037;DHT22;62488;-37.670;-63.532;2023-02-19T01:36:06;16.30;43.30
44037;DHT22;62488;-37.670;-63.532;2023-02-19T01:38:33;16.20;43.70
44037;DHT22;62488;-37.670;-63.532;2023-02-19T01:41:04;16.20;44.20
44037;DHT22;62488;-37.670;-63.532;2023-02-19T01:43:33;16.10;44.10
44037;DHT22;62488;-37.670;-63.532;2023-02-19T01:46:01;16.20;44.00
44037;DHT22;62488;-37.670;-63.532;2023-02-19T01:48:36;16.20;43.70
44037;DHT22;62488;-37.670;-63.532;2023-02-19T01:51:13;16.20;43.30
44037;DHT22;62488;-37.670;-63.532;2023-02-19T01:53:45;16.20;43.50
44037;DHT22;62488;-37.670;-63.532;2023-02-19T01:56:14;16.20;43.60
44037;DHT22;62488;-37.670;-63.532;2023-02-19T01:58:42;16.40;43.20
44037;DHT22;62488;-37.670;-63.532;2023-02-19T02:01:10;16.30;43.20
44037;DHT22;62488;-37.670;-63.532;2023-02-19T02:03:39;16.30;43.20
44037;DHT22;62488;-37.670;-63.532;2023-02-19T02:06:24;16.20;43.30
44037;DHT22;62488;-37.670;-63.532;2023-02-19T02:08:55;16.30;43.50
44037;DHT22;62488;-37.670;-63.532;2023-02-19T02:11:45;16.20;43.30
44037;DHT22;62488;-37.670;-63.532;2023-02-19T02:14:13;16.10;43.60
44037;DHT22;62488;-37.670;-63.532;2023-02-19T02:31:30;15.60;45.10
44037;DHT22;62488;-37.670;-63.532;2023-02-19T02:34:13;15.50;45.50
44037;DHT22;62488;-37.670;-63.532;2023-02-19T02:36:44;15.40;45.70
44037;DHT22;62488;-37.670;-63.532;2023-02-19T02:39:19;15.30;46.10
44037;DHT22;62488;-37.670;-63.532;2023-02-19T02:41:55;15.10;46.50
44037;DHT22;62488;-37.670;-63.532;2023-02-19T02:44:42;15.10;46.90
44037;DHT22;62488;-37.670;-63.532;2023-02-19T02:47:35;15.00;47.00
44037;DHT22;62488;-37.670;-63.532;2023-02-19T02:50:23;14.90;47.10
44037;DHT22;62488;-37.670;-63.532;2023-02-19T02:52:56;14.90;47.20
44037;DHT22;62488;-37.670;-63.532;2023-02-19T02:55:44;14.90;47.50
44037;DHT22;62488;-37.670;-63.532;2023-02-19T02:58:13;14.80;47.50
44037;DHT22;62488;-37.670;-63.532;2023-02-19T03:00:43;14.70;47.70
44037;DHT22;62488;-37.670;-63.532;2023-02-19T03:03:31;14.70;47.80
44037;DHT22;62488;-37.670;-63.532;2023-02-19T03:06:00;14.60;48.00
44037;DHT22;62488;-37.670;-63.532;2023-02-19T03:11:11;14.60;48.30
44037;DHT22;62488;-37.670;-63.532;2023-02-19T03:14:36;14.50;48.30
44037;DHT22;62488;-37.670;-63.532;2023-02-19T03:17:40;14.40;48.60
44037;DHT22;62488;-37.670;-63.532;2023-02-19T03:20:27;14.30;48.80
44037;DHT22;62488;-37.670;-63.532;2023-02-19T03:22:55;14.20;48.80
44037;DHT22;62488;-37.670;-63.532;2023-02-19T03:25:29;14.20;49.20
44037;DHT22;62488;-37.670;-63.532;2023-02-19T03:28:29;14.10;49.30
44037;DHT22;62488;-37.670;-63.532;2023-02-19T03:31:18;13.90;49.70
44037;DHT22;62488;-37.670;-63.532;2023-02-19T03:33:51;13.80;49.50
44037;DHT22;62488;-37.670;-63.532;2023-02-19T03:36:20;13.80;49.50
44037;DHT22;62488;-37.670;-63.532;2023-02-19T03:39:14;13.80;49.50
44037;DHT22;62488;-37.670;-63.532;2023-02-19T03:41:55;13.80;49.80
44037;DHT22;62488;-37.670;-63.532;2023-02-19T03:47:31;14.00;49.00
44037;DHT22;62488;-37.670;-63.532;2023-02-19T03:50:24;14.00;49.00
44037;DHT22;62488;-37.670;-63.532;2023-02-19T03:55:43;13.80;49.60
44037;DHT22;62488;-37.670;-63.532;2023-02-19T03:58:16;13.70;49.80
44037;DHT22;62488;-37.670;-63.532;2023-02-19T04:00:54;13.70;49.80
44037;DHT22;62488;-37.670;-63.532;2023-02-19T04:03:46;13.80;50.00
44037;DHT22;62488;-37.670;-63.532;2023-02-19T04:06:28;13.80;49.60
44037;DHT22;62488;-37.670;-63.532;2023-02-19T04:08:59;13.70;50.10
44037;DHT22;62488;-37.670;-63.532;2023-02-19T04:11:29;13.60;50.60
44037;DHT22;62488;-37.670;-63.532;2023-02-19T04:14:24;13.50;50.60
44037;DHT22;62488;-37.670;-63.532;2023-02-19T04:17:01;13.50;51.10
44037;DHT22;62488;-37.670;-63.532;2023-02-19T04:19:32;13.40;51.00
44037;DHT22;62488;-37.670;-63.532;2023-02-19T04:22:00;13.40;51.20
44037;DHT22;62488;-37.670;-63.532;2023-02-19T04:24:32;13.40;51.40
44037;DHT22;62488;-37.670;-63.532;2023-02-19T04:27:01;13.40;51.30
44037;DHT22;62488;-37.670;-63.532;2023-02-19T04:29:29;13.50;51.20
44037;DHT22;62488;-37.670;-63.532;2023-02-19T04:31:56;13.50;51.20
44037;DHT22;62488;-37.670;-63.532;2023-02-19T04:34:25;13.60;51.20
44037;DHT22;62488;-37.670;-63.532;2023-02-19T04:36:52;13.50;51.50
44037;DHT22;62488;-37.670;-63.532;2023-02-19T04:39:20;13.50;51.70
44037;DHT22;62488;-37.670;-63.532;2023-02-19T04:41:46;13.50;52.10
44037;DHT22;62488;-37.670;-63.532;2023-02-19T04:44:14;13.40;52.40
44037;DHT22;62488;-37.670;-63.532;2023-02-19T04:46:41;13.40;52.40
44037;DHT22;62488;-37.670;-63.532;2023-02-19T04:49:08;13.40;52.80
44037;DHT22;62488;-37.670;-63.532;2023-02-19T04:51:35;13.40;53.00
44037;DHT22;62488;-37.670;-63.532;2023-02-19T04:54:02;13.40;53.40
44037;DHT22;62488;-37.670;-63.532;2023-02-19T04:56:29;13.30;53.60
44037;DHT22;62488;-37.670;-63.532;2023-02-19T04:58:56;13.30;53.90
44037;DHT22;62488;-37.670;-63.532;2023-02-19T05:01:23;13.30;54.00
44037;DHT22;62488;-37.670;-63.532;2023-02-19T05:03:51;13.40;54.20
44037;DHT22;62488;-37.670;-63.532;2023-02-19T05:06:19;13.40;54.30
44037;DHT22;62488;-37.670;-63.532;2023-02-19T05:08:46;13.30;54.30
44037;DHT22;62488;-37.670;-63.532;2023-02-19T05:11:13;13.30;54.30
44037;DHT22;62488;-37.670;-63.532;2023-02-19T05:13:40;13.30;54.80
44037;DHT22;62488;-37.670;-63.532;2023-02-19T05:16:10;13.20;55.10
44037;DHT22;62488;-37.670;-63.532;2023-02-19T05:18:39;13.10;55.50
44037;DHT22;62488;-37.670;-63.532;2023-02-19T05:21:08;13.00;55.70
44037;DHT22;62488;-37.670;-63.532;2023-02-19T05:23:35;13.00;55.80
44037;DHT22;62488;-37.670;-63.532;2023-02-19T05:26:15;12.90;56.30
44037;DHT22;62488;-37.670;-63.532;2023-02-19T05:28:44;12.80;56.40
44037;DHT22;62488;-37.670;-63.532;2023-02-19T05:31:12;12.70;57.00
44037;DHT22;62488;-37.670;-63.532;2023-02-19T05:33:39;12.60;57.30
44037;DHT22;62488;-37.670;-63.532;2023-02-19T05:36:11;12.60;57.60
44037;DHT22;62488;-37.670;-63.532;2023-02-19T05:38:39;12.60;58.40
44037;DHT22;62488;-37.670;-63.532;2023-02-19T05:41:14;12.50;57.90
44037;DHT22;62488;-37.670;-63.532;2023-02-19T05:43:43;12.50;58.00
44037;DHT22;62488;-37.670;-63.532;2023-02-19T05:46:13;12.50;58.30
44037;DHT22;62488;-37.670;-63.532;2023-02-19T05:48:41;12.50;58.40
44037;DHT22;62488;-37.670;-63.532;2023-02-19T05:51:11;12.40;58.60
44037;DHT22;62488;-37.670;-63.532;2023-02-19T05:53:38;12.40;58.80
44037;DHT22;62488;-37.670;-63.532;2023-02-19T05:58:52;12.30;59.30
44037;DHT22;62488;-37.670;-63.532;2023-02-19T06:01:20;12.20;59.80
44037;DHT22;62488;-37.670;-63.532;2023-02-19T06:03:48;12.10;60.10
44037;DHT22;62488;-37.670;-63.532;2023-02-19T06:06:17;12.10;60.20
44037;DHT22;62488;-37.670;-63.532;2023-02-19T06:08:45;12.10;60.40
44037;DHT22;62488;-37.670;-63.532;2023-02-19T06:11:17;11.90;61.00
44037;DHT22;62488;-37.670;-63.532;2023-02-19T06:13:44;11.90;61.40
44037;DHT22;62488;-37.670;-63.532;2023-02-19T06:16:11;11.80;61.80
44037;DHT22;62488;-37.670;-63.532;2023-02-19T06:18:38;11.80;62.10
44037;DHT22;62488;-37.670;-63.532;2023-02-19T06:21:08;11.70;62.30
44037;DHT22;62488;-37.670;-63.532;2023-02-19T06:23:36;11.70;62.20
44037;DHT22;62488;-37.670;-63.532;2023-02-19T07:02:43;10.50;66.30
44037;DHT22;62488;-37.670;-63.532;2023-02-19T07:05:11;10.80;67.50
44037;DHT22;62488;-37.670;-63.532;2023-02-19T07:07:38;10.90;67.20
44037;DHT22;62488;-37.670;-63.532;2023-02-19T07:10:05;11.00;66.70
44037;DHT22;62488;-37.670;-63.532;2023-02-19T07:12:32;11.10;66.70
44037;DHT22;62488;-37.670;-63.532;2023-02-19T07:14:59;11.20;66.80
44037;DHT22;62488;-37.670;-63.532;2023-02-19T07:17:26;11.20;66.80
44037;DHT22;62488;-37.670;-63.532;2023-02-19T07:19:53;11.20;67.10
44037;DHT22;62488;-37.670;-63.532;2023-02-19T07:22:20;11.20;67.40
44037;DHT22;62488;-37.670;-63.532;2023-02-19T07:24:47;11.30;67.30
44037;DHT22;62488;-37.670;-63.532;2023-02-19T07:27:14;11.50;66.90
44037;DHT22;62488;-37.670;-63.532;2023-02-19T07:29:41;11.60;66.80
44037;DHT22;62488;-37.670;-63.532;2023-02-19T07:32:08;11.70;66.70
44037;DHT22;62488;-37.670;-63.532;2023-02-19T07:34:35;11.80;66.90
44037;DHT22;62488;-37.670;-63.532;2023-02-19T07:37:02;12.00;66.90
44037;DHT22;62488;-37.670;-63.532;2023-02-19T07:39:30;12.20;66.50
44037;DHT22;62488;-37.670;-63.532;2023-02-19T07:41:57;12.20;66.50
44037;DHT22;62488;-37.670;-63.532;2023-02-19T07:44:24;12.30;66.40
44037;DHT22;62488;-37.670;-63.532;2023-02-19T07:46:51;12.40;66.30
44037;DHT22;62488;-37.670;-63.532;2023-02-19T07:49:18;12.30;66.40
44037;DHT22;62488;-37.670;-63.532;2023-02-19T07:51:44;12.40;66.50
44037;DHT22;62488;-37.670;-63.532;2023-02-19T07:54:11;12.40;66.40
44037;DHT22;62488;-37.670;-63.532;2023-02-19T07:56:38;12.50;66.70
44037;DHT22;62488;-37.670;-63.532;2023-02-19T07:59:05;12.40;66.80
44037;DHT22;62488;-37.670;-63.532;2023-02-19T08:01:32;12.40;67.20
44037;DHT22;62488;-37.670;-63.532;2023-02-19T08:04:18;12.30;67.30
44037;DHT22;62488;-37.670;-63.532;2023-02-19T08:06:45;12.20;67.80
44037;DHT22;62488;-37.670;-63.532;2023-02-19T08:09:12;12.10;68.00
44037;DHT22;62488;-37.670;-63.532;2023-02-19T08:11:39;12.00;68.60
44037;DHT22;62488;-37.670;-63.532;2023-02-19T08:14:25;12.20;68.70
44037;DHT22;62488;-37.670;-63.532;2023-02-19T08:16:52;12.20;68.60
44037;DHT22;62488;-37.670;-63.532;2023-02-19T08:19:20;12.40;68.50
44037;DHT22;62488;-37.670;-63.532;2023-02-19T08:21:47;12.50;68.10
44037;DHT22;62488;-37.670;-63.532;2023-02-19T08:24:15;12.60;67.80
44037;DHT22;62488;-37.670;-63.532;2023-02-19T08:26:42;12.60;67.70
44037;DHT22;62488;-37.670;-63.532;2023-02-19T08:29:09;12.60;67.90
44037;DHT22;62488;-37.670;-63.532;2023-02-19T08:31:36;12.60;67.90
44037;DHT22;62488;-37.670;-63.532;2023-02-19T08:34:03;12.60;68.10
44037;DHT22;62488;-37.670;-63.532;2023-02-19T08:36:30;12.40;68.40
44037;DHT22;62488;-37.670;-63.532;2023-02-19T08:38:57;12.30;68.90
44037;DHT22;62488;-37.670;-63.532;2023-02-19T08:41:24;12.10;69.30
44037;DHT22;62488;-37.670;-63.532;2023-02-19T08:43:52;11.90;70.00
44037;DHT22;62488;-37.670;-63.532;2023-02-19T08:46:19;11.70;70.70
44037;DHT22;62488;-37.670;-63.532;2023-02-19T08:48:46;11.50;71.40
44037;DHT22;62488;-37.670;-63.532;2023-02-19T08:51:14;11.30;72.20
44037;DHT22;62488;-37.670;-63.532;2023-02-19T08:53:41;11.20;73.00
44037;DHT22;62488;-37.670;-63.532;2023-02-19T08:56:11;11.00;73.60
44037;DHT22;62488;-37.670;-63.532;2023-02-19T08:58:38;10.90;74.30
44037;DHT22;62488;-37.670;-63.532;2023-02-19T09:01:10;10.80;74.90
44037;DHT22;62488;-37.670;-63.532;2023-02-19T09:03:38;10.80;75.10
44037;DHT22;62488;-37.670;-63.532;2023-02-19T09:06:05;10.80;75.40
44037;DHT22;62488;-37.670;-63.532;2023-02-19T09:08:33;10.80;75.60
44037;DHT22;62488;-37.670;-63.532;2023-02-19T09:11:01;10.80;76.00
44037;DHT22;62488;-37.670;-63.532;2023-02-19T09:13:29;10.70;76.30
44037;DHT22;62488;-37.670;-63.532;2023-02-19T09:15:56;10.70;76.60
44037;DHT22;62488;-37.670;-63.532;2023-02-19T09:18:24;10.70;76.90
44037;DHT22;62488;-37.670;-63.532;2023-02-19T09:20:51;10.70;77.00
44037;DHT22;62488;-37.670;-63.532;2023-02-19T09:23:18;10.60;77.40
44037;DHT22;62488;-37.670;-63.532;2023-02-19T09:25:45;10.60;78.00
44037;DHT22;62488;-37.670;-63.532;2023-02-19T09:28:12;10.50;78.30
44037;DHT22;62488;-37.670;-63.532;2023-02-19T09:30:39;10.40;78.60
44037;DHT22;62488;-37.670;-63.532;2023-02-19T09:33:06;10.30;79.40
44037;DHT22;62488;-37.670;-63.532;2023-02-19T09:35:33;10.20;80.00
44037;DHT22;62488;-37.670;-63.532;2023-02-19T09:38:00;10.10;80.60
44037;DHT22;62488;-37.670;-63.532;2023-02-19T09:40:29;10.10;81.00
44037;DHT22;62488;-37.670;-63.532;2023-02-19T09:42:56;10.10;81.80
44037;DHT22;62488;-37.670;-63.532;2023-02-19T09:45:25;10.10;82.30
44037;DHT22;62488;-37.670;-63.532;2023-02-19T09:47:54;10.10;82.70
44037;DHT22;62488;-37.670;-63.532;2023-02-19T09:50:23;10.10;82.90
44037;DHT22;62488;-37.670;-63.532;2023-02-19T09:52:53;10.10;83.30
44037;DHT22;62488;-37.670;-63.532;2023-02-19T09:57:50;10.20;83.70
44037;DHT22;62488;-37.670;-63.532;2023-02-19T10:00:23;10.20;84.00
44037;DHT22;62488;-37.670;-63.532;2023-02-19T10:03:04;10.30;84.30
44037;DHT22;62488;-37.670;-63.532;2023-02-19T10:05:33;10.30;84.70
44037;DHT22;62488;-37.670;-63.532;2023-02-19T10:08:04;10.40;84.90
44037;DHT22;62488;-37.670;-63.532;2023-02-19T10:10:35;10.40;85.20
44037;DHT22;62488;-37.670;-63.532;2023-02-19T10:13:22;10.50;85.10
44037;DHT22;62488;-37.670;-63.532;2023-02-19T10:15:58;10.40;85.00
44037;DHT22;62488;-37.670;-63.532;2023-02-19T10:18:28;10.40;84.90
44037;DHT22;62488;-37.670;-63.532;2023-02-19T10:20:58;10.40;85.30
44037;DHT22;62488;-37.670;-63.532;2023-02-19T10:23:26;10.50;85.20
44037;DHT22;62488;-37.670;-63.532;2023-02-19T10:25:55;10.70;85.20
44037;DHT22;62488;-37.670;-63.532;2023-02-19T10:28:29;10.80;84.70
44037;DHT22;62488;-37.670;-63.532;2023-02-19T10:30:59;10.90;84.50
44037;DHT22;62488;-37.670;-63.532;2023-02-19T10:33:26;10.90;84.50
44037;DHT22;62488;-37.670;-63.532;2023-02-19T10:36:02;11.00;84.20
44037;DHT22;62488;-37.670;-63.532;2023-02-19T10:38:38;11.20;84.10
44037;DHT22;62488;-37.670;-63.532;2023-02-19T10:41:16;11.40;83.70
44037;DHT22;62488;-37.670;-63.532;2023-02-19T10:43:53;11.50;83.40
44037;DHT22;62488;-37.670;-63.532;2023-02-19T10:46:30;11.50;83.20
44037;DHT22;62488;-37.670;-63.532;2023-02-19T10:49:01;11.60;83.30
44037;DHT22;62488;-37.670;-63.532;2023-02-19T10:51:37;11.70;83.00
44037;DHT22;62488;-37.670;-63.532;2023-02-19T10:54:18;11.80;82.90
44037;DHT22;62488;-37.670;-63.532;2023-02-19T10:56:45;11.90;82.70
44037;DHT22;62488;-37.670;-63.532;2023-02-19T10:59:28;12.10;82.50
44037;DHT22;62488;-37.670;-63.532;2023-02-19T11:02:08;12.30;81.50
44037;DHT22;62488;-37.670;-63.532;2023-02-19T11:04:41;12.30;80.90
44037;DHT22;62488;-37.670;-63.532;2023-02-19T11:07:27;12.50;81.20
44037;DHT22;62488;-37.670;-63.532;2023-02-19T11:09:54;12.60;79.70
44037;DHT22;62488;-37.670;-63.532;2023-02-19T11:12:39;12.70;80.00
44037;DHT22;62488;-37.670;-63.532;2023-02-19T11:17:57;12.70;79.20
44037;DHT22;62488;-37.670;-63.532;2023-02-19T11:20:25;12.80;79.30
44037;DHT22;62488;-37.670;-63.532;2023-02-19T11:23:00;12.90;79.20
44037;DHT22;62488;-37.670;-63.532;2023-02-19T11:25:30;13.10;78.80
44037;DHT22;62488;-37.670;-63.532;2023-02-19T11:28:16;13.30;78.20
44037;DHT22;62488;-37.670;-63.532;2023-02-19T11:30:46;13.40;77.50
44037;DHT22;62488;-37.670;-63.532;2023-02-19T11:35:40;13.50;77.00
44037;DHT22;62488;-37.670;-63.532;2023-02-19T11:38:13;13.70;76.80
44037;DHT22;62488;-37.670;-63.532;2023-02-19T11:41:08;13.70;76.70
44037;DHT22;62488;-37.670;-63.532;2023-02-19T11:46:56;13.80;76.80
44037;DHT22;62488;-37.670;-63.532;2023-02-19T12:00:26;15.00;74.20
44037;DHT22;62488;-37.670;-63.532;2023-02-19T12:03:31;15.40;73.60
44037;DHT22;62488;-37.670;-63.532;2023-02-19T12:11:43;15.50;72.00
44037;DHT22;62488;-37.670;-63.532;2023-02-19T12:26:09;16.50;70.00
44037;DHT22;62488;-37.670;-63.532;2023-02-19T12:34:14;16.20;70.80
44037;DHT22;62488;-37.670;-63.532;2023-02-19T12:48:00;17.90;68.70
44037;DHT22;62488;-37.670;-63.532;2023-02-19T12:50:28;18.20;67.90
44037;DHT22;62488;-37.670;-63.532;2023-02-19T12:53:23;18.20;67.10
44037;DHT22;62488;-37.670;-63.532;2023-02-19T12:55:53;18.10;68.00
44037;DHT22;62488;-37.670;-63.532;2023-02-19T12:59:34;17.50;68.70
44037;DHT22;62488;-37.670;-63.532;2023-02-19T13:01:45;16.90;70.60
44037;DHT22;62488;-37.670;-63.532;2023-02-19T13:04:25;17.00;71.10
44037;DHT22;62488;-37.670;-63.532;2023-02-19T13:07:02;17.20;70.10
44037;DHT22;62488;-37.670;-63.532;2023-02-19T13:09:41;17.50;70.20
44037;DHT22;62488;-37.670;-63.532;2023-02-19T13:12:41;18.00;68.10
44037;DHT22;62488;-37.670;-63.532;2023-02-19T13:17:50;18.50;67.30
44037;DHT22;62488;-37.670;-63.532;2023-02-19T13:20:39;19.10;67.20
44037;DHT22;62488;-37.670;-63.532;2023-02-19T13:26:08;19.40;64.90
44037;DHT22;62488;-37.670;-63.532;2023-02-19T13:31:38;18.90;66.40
44037;DHT22;62488;-37.670;-63.532;2023-02-19T13:34:27;19.20;65.80
44037;DHT22;62488;-37.670;-63.532;2023-02-19T13:36:58;19.60;65.30
44037;DHT22;62488;-37.670;-63.532;2023-02-19T13:39:26;20.30;64.80
44037;DHT22;62488;-37.670;-63.532;2023-02-19T13:41:55;20.50;63.30
44037;DHT22;62488;-37.670;-63.532;2023-02-19T13:44:33;20.90;62.00
44037;DHT22;62488;-37.670;-63.532;2023-02-19T13:47:01;21.40;61.70
44037;DHT22;62488;-37.670;-63.532;2023-02-19T13:52:00;21.90;59.60
44037;DHT22;62488;-37.670;-63.532;2023-02-19T13:54:35;22.10;59.90
44037;DHT22;62488;-37.670;-63.532;2023-02-19T13:59:48;22.50;58.40
44037;DHT22;62488;-37.670;-63.532;2023-02-19T14:04:53;22.00;59.20
44037;DHT22;62488;-37.670;-63.532;2023-02-19T14:07:34;22.30;58.20
44037;DHT22;62488;-37.670;-63.532;2023-02-19T14:10:06;22.40;58.60
44037;DHT22;62488;-37.670;-63.532;2023-02-19T14:12:35;22.70;58.00
44037;DHT22;62488;-37.670;-63.532;2023-02-19T14:17:50;23.00;57.10
44037;DHT22;62488;-37.670;-63.532;2023-02-19T14:20:39;23.10;56.50
44037;DHT22;62488;-37.670;-63.532;2023-02-19T14:23:26;23.10;56.80
44037;DHT22;62488;-37.670;-63.532;2023-02-19T14:25:58;23.60;55.80
44037;DHT22;62488;-37.670;-63.532;2023-02-19T14:28:53;24.00;55.00
44037;DHT22;62488;-37.670;-63.532;2023-02-19T14:31:44;24.50;54.10
44037;DHT22;62488;-37.670;-63.532;2023-02-19T14:34:19;24.40;53.10
44037;DHT22;62488;-37.670;-63.532;2023-02-19T14:39:20;24.70;52.20
44037;DHT22;62488;-37.670;-63.532;2023-02-19T14:41:51;24.90;53.60
44037;DHT22;62488;-37.670;-63.532;2023-02-19T14:44:27;24.80;52.70
44037;DHT22;62488;-37.670;-63.532;2023-02-19T14:47:04;24.60;52.90
44037;DHT22;62488;-37.670;-63.532;2023-02-19T14:49:54;24.70;52.50
44037;DHT22;62488;-37.670;-63.532;2023-02-19T14:52:33;25.10;51.70
44037;DHT22;62488;-37.670;-63.532;2023-02-19T14:57:39;25.20;51.90
44037;DHT22;62488;-37.670;-63.532;2023-02-19T15:00:24;25.50;51.70
44037;DHT22;62488;-37.670;-63.532;2023-02-19T15:02:54;25.40;51.50
44037;DHT22;62488;-37.670;-63.532;2023-02-19T15:07:59;25.80;51.50
44037;DHT22;62488;-37.670;-63.532;2023-02-19T15:10:30;25.70;51.30
44037;DHT22;62488;-37.670;-63.532;2023-02-19T15:13:03;25.70;50.90
44037;DHT22;62488;-37.670;-63.532;2023-02-19T15:15:44;26.00;51.30
44037;DHT22;62488;-37.670;-63.532;2023-02-19T15:18:19;26.30;50.90
44037;DHT22;62488;-37.670;-63.532;2023-02-19T15:20:47;25.80;51.10
44037;DHT22;62488;-37.670;-63.532;2023-02-19T15:23:22;26.00;50.70
44037;DHT22;62488;-37.670;-63.532;2023-02-19T15:25:50;26.00;51.80
44037;DHT22;62488;-37.670;-63.532;2023-02-19T15:31:13;26.30;50.60
44037;DHT22;62488;-37.670;-63.532;2023-02-19T15:33:37;26.80;50.90
44037;DHT22;62488;-37.670;-63.532;2023-02-19T15:36:06;27.00;50.20
44037;DHT22;62488;-37.670;-63.532;2023-02-19T15:38:35;26.80;50.00
44037;DHT22;62488;-37.670;-63.532;2023-02-19T15:41:02;27.00;49.60
44037;DHT22;62488;-37.670;-63.532;2023-02-19T15:43:51;26.70;50.10
44037;DHT22;62488;-37.670;-63.532;2023-02-19T15:46:22;27.10;49.00
44037;DHT22;62488;-37.670;-63.532;2023-02-19T15:49:08;26.90;49.20
44037;DHT22;62488;-37.670;-63.532;2023-02-19T15:51:46;27.30;48.00
44037;DHT22;62488;-37.670;-63.532;2023-02-19T15:54:30;27.10;49.20
44037;DHT22;62488;-37.670;-63.532;2023-02-19T15:57:05;27.30;48.00
44037;DHT22;62488;-37.670;-63.532;2023-02-19T15:59:38;27.20;47.80
44037;DHT22;62488;-37.670;-63.532;2023-02-19T16:02:13;27.60;48.00
44037;DHT22;62488;-37.670;-63.532;2023-02-19T16:04:42;28.00;47.60
44037;DHT22;62488;-37.670;-63.532;2023-02-19T16:07:25;28.20;47.00
44037;DHT22;62488;-37.670;-63.532;2023-02-19T16:10:22;28.10;47.40
44037;DHT22;62488;-37.670;-63.532;2023-02-19T16:13:00;27.70;47.30
44037;DHT22;62488;-37.670;-63.532;2023-02-19T16:15:29;27.30;47.70
44037;DHT22;62488;-37.670;-63.532;2023-02-19T16:17:57;27.90;47.80
44037;DHT22;62488;-37.670;-63.532;2023-02-19T16:20:28;28.00;47.10
44037;DHT22;62488;-37.670;-63.532;2023-02-19T16:23:04;28.20;46.80
44037;DHT22;62488;-37.670;-63.532;2023-02-19T16:25:41;28.10;47.50
44037;DHT22;62488;-37.670;-63.532;2023-02-19T16:28:20;28.10;47.00
44037;DHT22;62488;-37.670;-63.532;2023-02-19T16:31:09;28.00;47.40
44037;DHT22;62488;-37.670;-63.532;2023-02-19T16:33:46;28.30;47.30
44037;DHT22;62488;-37.670;-63.532;2023-02-19T16:41:36;28.70;46.90
44037;DHT22;62488;-37.670;-63.532;2023-02-19T16:47:11;28.60;46.80
44037;DHT22;62488;-37.670;-63.532;2023-02-19T16:49:39;29.00;46.20
44037;DHT22;62488;-37.670;-63.532;2023-02-19T16:52:11;29.00;46.60
44037;DHT22;62488;-37.670;-63.532;2023-02-19T16:54:39;28.90;46.10
44037;DHT22;62488;-37.670;-63.532;2023-02-19T16:57:06;28.90;46.20
44037;DHT22;62488;-37.670;-63.532;2023-02-19T16:59:33;28.90;46.50
44037;DHT22;62488;-37.670;-63.532;2023-02-19T17:02:03;28.80;46.50
44037;DHT22;62488;-37.670;-63.532;2023-02-19T17:04:30;29.10;46.00
44037;DHT22;62488;-37.670;-63.532;2023-02-19T17:06:57;29.10;46.50
44037;DHT22;62488;-37.670;-63.532;2023-02-19T17:09:24;28.70;46.00
44037;DHT22;62488;-37.670;-63.532;2023-02-19T17:11:51;28.80;45.80
44037;DHT22;62488;-37.670;-63.532;2023-02-19T17:14:18;29.00;46.10
44037;DHT22;62488;-37.670;-63.532;2023-02-19T17:16:46;29.10;45.70
44037;DHT22;62488;-37.670;-63.532;2023-02-19T17:19:15;29.10;46.00
44037;DHT22;62488;-37.670;-63.532;2023-02-19T17:21:44;29.70;45.50
44037;DHT22;62488;-37.670;-63.532;2023-02-19T17:24:12;29.70;45.30
44037;DHT22;62488;-37.670;-63.532;2023-02-19T17:26:39;29.50;45.20
44037;DHT22;62488;-37.670;-63.532;2023-02-19T17:29:09;29.60;45.60
44037;DHT22;62488;-37.670;-63.532;2023-02-19T17:31:39;29.40;45.80
44037;DHT22;62488;-37.670;-63.532;2023-02-19T17:34:06;29.50;45.40
44037;DHT22;62488;-37.670;-63.532;2023-02-19T17:36:33;29.60;45.20
44037;DHT22;62488;-37.670;-63.532;2023-02-19T17:39:01;29.70;44.90
44037;DHT22;62488;-37.670;-63.532;2023-02-19T17:41:28;29.40;44.70
44037;DHT22;62488;-37.670;-63.532;2023-02-19T17:43:56;29.20;45.50
44037;DHT22;62488;-37.670;-63.532;2023-02-19T17:46:24;29.40;45.50
44037;DHT22;62488;-37.670;-63.532;2023-02-19T17:48:53;29.30;44.40
44037;DHT22;62488;-37.670;-63.532;2023-02-19T17:51:20;29.50;45.40
44037;DHT22;62488;-37.670;-63.532;2023-02-19T17:53:47;29.60;44.90
44037;DHT22;62488;-37.670;-63.532;2023-02-19T17:56:22;29.50;44.70
44037;DHT22;62488;-37.670;-63.532;2023-02-19T17:58:51;29.90;44.00